createdAt,value
2023-02-27T00:00:19.266Z,38.45
2023-02-27T00:02:47.994Z,38.20
2023-02-27T00:05:15.846Z,38.41
2023-02-27T00:07:42.939Z,38.54
2023-02-27T00:10:14.402Z,38.40
2023-02-27T00:12:41.779Z,38.18
2023-02-27T00:15:10.295Z,38.31
2023-02-27T00:17:38.086Z,38.47
2023-02-27T00:20:07.706Z,38.38
2023-02-27T00:22:34.615Z,38.59
2023-02-27T00:25:01.558Z,38.64
2023-02-27T00:27:28.827Z,38.84
2023-02-27T00:29:56.037Z,39.04
2023-02-27T00:32:23.052Z,38.67
2023-02-27T00:34:50.124Z,38.76
2023-02-27T00:37:18.138Z,38.87
2023-02-27T00:39:45.045Z,38.61
2023-02-27T00:42:12.014Z,38.73
2023-02-27T00:44:39.274Z,38.69
2023-02-27T00:47:07.207Z,38.79
2023-02-27T00:49:34.253Z,38.80
2023-02-27T00:52:01.434Z,39.09
2023-02-27T00:54:28.562Z,39.25
2023-02-27T00:56:55.471Z,39.35
2023-02-27T00:59:22.671Z,39.56
2023-02-27T01:01:49.661Z,39.42
2023-02-27T01:04:16.585Z,38.74
2023-02-27T01:06:43.626Z,38.95
2023-02-27T01:09:10.586Z,38.73
2023-02-27T01:11:37.848Z,39.06
2023-02-27T01:14:05.031Z,39.07
2023-02-27T01:16:32.609Z,38.82
2023-02-27T01:18:59.951Z,38.90
2023-02-27T01:21:27.219Z,39.02
2023-02-27T01:23:54.296Z,38.66
2023-02-27T01:26:21.306Z,38.52
2023-02-27T01:28:48.386Z,38.70
2023-02-27T01:31:15.950Z,38.72
2023-02-27T01:33:42.953Z,38.46
2023-02-27T01:36:10.628Z,38.79
2023-02-27T01:38:37.583Z,38.58
2023-02-27T01:41:07.412Z,38.24
2023-02-27T01:43:34.914Z,38.11
2023-02-27T01:46:01.917Z,38.30
2023-02-27T01:48:35.829Z,38.10
2023-02-27T01:51:08.986Z,38.12
2023-02-27T01:53:38.867Z,37.92
2023-02-27T01:56:18.768Z,37.82
2023-02-27T01:58:48.107Z,37.97
2023-02-27T02:01:16.473Z,38.00
2023-02-27T02:03:52.725Z,38.21
2023-02-27T02:06:21.846Z,38.04
2023-02-27T02:08:51.176Z,37.94
2023-02-27T02:11:21.131Z,38.05
2023-02-27T02:13:51.396Z,37.96
2023-02-27T02:16:24.286Z,37.88
2023-02-27T02:19:20.575Z,37.34
2023-02-27T02:22:20.707Z,37.27
2023-02-27T02:25:25.186Z,37.33
2023-02-27T02:28:16.266Z,37.31
2023-02-27T02:31:11.074Z,37.13
2023-02-27T02:34:03.158Z,37.10
2023-02-27T02:37:08.107Z,37.22
2023-02-27T02:39:43.057Z,36.95
2023-02-27T02:42:38.750Z,37.52
2023-02-27T02:45:23.109Z,37.47
2023-02-27T02:48:01.967Z,37.42
2023-02-27T02:50:53.402Z,36.90
2023-02-27T02:53:51.297Z,37.46
2023-02-27T02:56:24.168Z,37.92
2023-02-27T02:59:08.863Z,37.20
2023-02-27T03:02:01.148Z,37.50
2023-02-27T03:04:51.987Z,37.17
2023-02-27T03:07:32.720Z,37.16
2023-02-27T03:10:09.899Z,37.13
2023-02-27T03:12:41.499Z,37.65
2023-02-27T03:15:41.419Z,37.68
2023-02-27T03:18:19.007Z,37.30
2023-02-27T03:20:51.809Z,37.75
2023-02-27T03:23:38.115Z,37.81
2023-02-27T03:26:06.737Z,37.79
2023-02-27T03:28:37.344Z,37.88
2023-02-27T03:31:43.139Z,37.80
2023-02-27T03:34:33.726Z,37.83
2023-02-27T03:37:21.814Z,37.87
2023-02-27T03:40:00.875Z,37.93
2023-02-27T03:43:07.945Z,38.21
2023-02-27T03:45:59.512Z,38.30
2023-02-27T03:48:26.692Z,38.50
2023-02-27T03:50:55.571Z,38.50
2023-02-27T03:53:33.396Z,38.42
2023-02-27T03:56:03.131Z,38.49
2023-02-27T03:58:30.466Z,38.20
2023-02-27T04:00:57.737Z,38.26
2023-02-27T04:03:25.241Z,38.23
2023-02-27T04:05:52.844Z,38.24
2023-02-27T04:08:40.368Z,38.36
2023-02-27T04:11:16.051Z,38.36
2023-02-27T04:13:48.861Z,38.88
2023-02-27T04:16:35.181Z,39.13
2023-02-27T04:19:41.114Z,39.45
2023-02-27T04:22:13.815Z,39.24
2023-02-27T04:25:07.353Z,39.02
2023-02-27T04:27:40.406Z,39.02
2023-02-27T04:30:36.358Z,39.85
2023-02-27T04:33:13.784Z,39.60
2023-02-27T04:36:03.878Z,39.67
2023-02-27T04:39:03.240Z,39.39
2023-02-27T04:42:03.529Z,39.96
2023-02-27T04:44:33.614Z,40.40
2023-02-27T04:47:03.510Z,40.20
2023-02-27T04:49:53.510Z,40.09
2023-02-27T04:52:35.030Z,40.11
2023-02-27T04:55:29.611Z,39.96
2023-02-27T04:58:09.142Z,40.07
2023-02-27T05:00:40.014Z,40.07
2023-02-27T05:03:33.240Z,40.16
2023-02-27T05:06:02.612Z,40.28
2023-02-27T05:08:32.674Z,40.68
2023-02-27T05:11:31.487Z,40.36
2023-02-27T05:14:30.541Z,40.42
2023-02-27T05:17:09.727Z,40.10
2023-02-27T05:19:41.184Z,40.51
2023-02-27T05:22:22.864Z,40.89
2023-02-27T05:24:53.111Z,40.83
2023-02-27T05:27:20.310Z,41.08
2023-02-27T05:29:52.555Z,40.59
2023-02-27T05:32:28.678Z,40.57
2023-02-27T05:35:18.670Z,41.57
2023-02-27T05:38:12.581Z,41.68
2023-02-27T05:40:52.027Z,41.89
2023-02-27T05:43:28.700Z,41.78
2023-02-27T05:46:01.738Z,41.43
2023-02-27T05:48:36.738Z,41.71
2023-02-27T05:51:07.057Z,41.41
2023-02-27T05:53:40.266Z,41.51
2023-02-27T05:56:09.424Z,41.37
2023-02-27T05:58:50.742Z,40.99
2023-02-27T06:01:18.205Z,41.83
2023-02-27T06:03:45.547Z,41.48
2023-02-27T06:06:16.704Z,41.88
2023-02-27T06:08:45.383Z,42.56
2023-02-27T06:11:13.670Z,43.01
2023-02-27T06:13:42.108Z,43.02
2023-02-27T06:16:14.168Z,43.15
2023-02-27T06:18:41.384Z,42.30
2023-02-27T06:21:13.585Z,42.22
2023-02-27T06:23:40.865Z,41.72
2023-02-27T06:26:08.113Z,41.57
2023-02-27T06:28:35.349Z,42.39
2023-02-27T06:31:03.459Z,42.31
2023-02-27T06:33:30.663Z,42.27
2023-02-27T06:35:58.100Z,42.56
2023-02-27T06:38:25.595Z,42.31
2023-02-27T06:40:52.863Z,41.82
2023-02-27T06:43:23.066Z,41.76
2023-02-27T06:45:53.511Z,41.45
2023-02-27T06:48:20.904Z,41.76
2023-02-27T06:50:56.582Z,41.84
2023-02-27T06:53:24.813Z,41.52
2023-02-27T06:55:52.026Z,41.35
2023-02-27T06:58:19.618Z,41.26
2023-02-27T07:00:46.863Z,41.40
2023-02-27T07:03:15.136Z,41.68
2023-02-27T07:05:42.457Z,42.37
2023-02-27T07:08:10.265Z,42.05
2023-02-27T07:10:37.817Z,41.93
2023-02-27T07:13:05.057Z,41.92
2023-02-27T07:15:32.257Z,41.59
2023-02-27T07:17:59.461Z,41.40
2023-02-27T07:20:26.668Z,41.77
2023-02-27T07:22:53.857Z,41.39
2023-02-27T07:25:21.099Z,41.09
2023-02-27T07:27:50.068Z,41.56
2023-02-27T07:30:18.697Z,40.51
2023-02-27T07:32:46.576Z,40.52
2023-02-27T07:35:13.938Z,40.58
2023-02-27T07:37:41.179Z,40.53
2023-02-27T07:40:09.418Z,39.08
2023-02-27T07:42:36.564Z,39.46
2023-02-27T07:45:04.265Z,38.81
2023-02-27T07:47:31.985Z,38.32
2023-02-27T07:49:59.185Z,38.93
2023-02-27T07:52:26.581Z,38.61
2023-02-27T07:54:53.921Z,38.08
2023-02-27T07:57:21.270Z,38.22
2023-02-27T07:59:48.783Z,37.90
2023-02-27T08:02:16.110Z,37.85
2023-02-27T08:04:43.361Z,37.52
2023-02-27T08:07:10.662Z,37.47
2023-02-27T08:09:37.892Z,37.06
2023-02-27T08:12:05.301Z,37.33
2023-02-27T08:14:32.548Z,37.19
2023-02-27T08:17:00.900Z,37.21
2023-02-27T08:19:28.186Z,36.73
2023-02-27T08:21:55.743Z,36.35
2023-02-27T08:24:23.104Z,36.95
2023-02-27T08:26:50.312Z,36.91
2023-02-27T08:29:17.783Z,35.69
2023-02-27T08:31:45.394Z,36.30
2023-02-27T08:34:14.073Z,36.04
2023-02-27T08:36:41.578Z,35.83
2023-02-27T08:39:09.846Z,35.46
2023-02-27T08:41:37.040Z,35.06
2023-02-27T08:44:04.833Z,34.69
2023-02-27T08:46:32.058Z,34.68
2023-02-27T08:48:59.418Z,34.97
2023-02-27T08:51:27.024Z,34.41
2023-02-27T08:53:59.205Z,34.12
2023-02-27T08:56:28.214Z,34.37
2023-02-27T08:58:56.305Z,34.56
2023-02-27T09:01:24.076Z,34.25
2023-02-27T09:03:51.362Z,33.98
2023-02-27T09:06:18.577Z,33.66
2023-02-27T09:08:45.820Z,33.08
2023-02-27T09:11:13.099Z,33.09
2023-02-27T09:13:40.219Z,32.64
2023-02-27T09:16:07.617Z,32.04
2023-02-27T09:18:34.905Z,32.52
2023-02-27T09:21:02.139Z,31.46
2023-02-27T09:23:29.338Z,31.62
2023-02-27T09:25:56.544Z,32.37
2023-02-27T09:28:23.743Z,31.87
2023-02-27T09:30:51.099Z,31.44
2023-02-27T09:33:18.299Z,31.80
2023-02-27T09:35:45.690Z,31.28
2023-02-27T09:38:13.978Z,30.57
2023-02-27T09:40:42.117Z,30.70
2023-02-27T09:43:19.096Z,30.42
2023-02-27T09:45:50.323Z,29.65
2023-02-27T09:48:20.500Z,30.08
2023-02-27T09:50:52.996Z,30.07
2023-02-27T09:53:40.400Z,30.59
2023-02-27T09:56:22.832Z,29.47
2023-02-27T09:59:14.620Z,29.19
2023-02-27T10:01:51.383Z,29.73
2023-02-27T10:04:18.785Z,30.02
2023-02-27T10:07:19.698Z,30.22
2023-02-27T10:09:56.594Z,29.19
2023-02-27T10:12:42.220Z,28.88
2023-02-27T10:15:38.501Z,28.91
2023-02-27T10:18:26.071Z,29.21
2023-02-27T10:20:59.142Z,29.09
2023-02-27T10:23:58.663Z,28.94
2023-02-27T10:26:30.630Z,28.30
2023-02-27T10:29:03.021Z,27.91
2023-02-27T10:31:33.886Z,27.46
2023-02-27T10:34:01.625Z,28.07
2023-02-27T10:36:33.998Z,28.83
2023-02-27T10:39:08.157Z,28.69
2023-02-27T10:41:37.105Z,28.78
2023-02-27T10:44:05.276Z,28.74
2023-02-27T10:46:34.912Z,28.67
2023-02-27T10:49:05.826Z,28.41
2023-02-27T10:51:38.353Z,28.18
2023-02-27T10:54:26.686Z,28.42
2023-02-27T10:57:03.378Z,28.22
2023-02-27T10:59:35.746Z,28.62
2023-02-27T11:02:25.426Z,28.70
2023-02-27T11:04:59.143Z,29.13
2023-02-27T11:07:44.857Z,28.28
2023-02-27T11:10:14.740Z,28.72
2023-02-27T11:12:56.615Z,28.22
2023-02-27T11:15:26.420Z,28.24
2023-02-27T11:17:55.304Z,27.89
2023-02-27T11:20:36.437Z,28.15
2023-02-27T11:23:20.069Z,28.45
2023-02-27T11:25:47.823Z,28.60
2023-02-27T11:28:20.140Z,29.96
2023-02-27T11:31:01.346Z,30.13
2023-02-27T11:33:32.006Z,30.48
2023-02-27T11:35:59.814Z,30.89
2023-02-27T11:38:29.742Z,30.85
2023-02-27T11:41:05.981Z,31.25
2023-02-27T11:43:47.187Z,31.02
2023-02-27T11:46:43.287Z,30.86
2023-02-27T11:49:25.022Z,30.92
2023-02-27T11:52:12.223Z,30.41
2023-02-27T11:55:01.940Z,30.88
2023-02-27T11:57:39.622Z,30.63
2023-02-27T12:00:33.501Z,30.65
2023-02-27T12:13:35.343Z,31.02
2023-02-27T12:16:32.740Z,30.14
2023-02-27T12:19:00.263Z,29.83
2023-02-27T12:21:32.425Z,29.10
2023-02-27T12:24:05.783Z,29.51
2023-02-27T12:26:37.744Z,28.68
2023-02-27T12:29:24.945Z,28.45
2023-02-27T12:31:54.646Z,28.11
2023-02-27T12:34:34.580Z,28.42
2023-02-27T12:37:11.674Z,27.76
2023-02-27T12:39:40.697Z,27.56
2023-02-27T12:42:23.027Z,27.50
2023-02-27T12:45:00.031Z,28.22
2023-02-27T12:47:37.621Z,28.58
2023-02-27T12:50:15.872Z,28.74
2023-02-27T12:52:43.017Z,28.45
2023-02-27T12:55:21.791Z,28.60
2023-02-27T12:58:24.583Z,27.94
2023-02-27T13:00:54.588Z,28.27
2023-02-27T13:03:28.697Z,27.85
2023-02-27T13:06:07.827Z,28.15
2023-02-27T13:08:53.181Z,28.73
2023-02-27T13:11:32.150Z,28.48
2023-02-27T13:14:07.701Z,27.94
2023-02-27T13:16:43.588Z,28.02
2023-02-27T13:19:13.748Z,28.13
2023-02-27T13:21:51.906Z,27.93
2023-02-27T13:24:27.095Z,28.13
2023-02-27T13:27:48.587Z,28.31
2023-02-27T13:30:26.985Z,28.52
2023-02-27T13:33:51.107Z,28.82
2023-02-27T13:36:18.270Z,29.10
2023-02-27T13:38:50.753Z,29.30
2023-02-27T13:41:20.818Z,29.63
2023-02-27T13:43:52.376Z,28.89
2023-02-27T13:46:34.593Z,29.30
2023-02-27T13:49:04.785Z,29.56
2023-02-27T13:51:47.074Z,29.82
2023-02-27T13:54:14.354Z,29.28
2023-02-27T13:56:49.463Z,28.65
2023-02-27T13:59:21.534Z,27.93
2023-02-27T14:01:55.959Z,26.86
2023-02-27T14:04:26.589Z,25.66
2023-02-27T14:07:21.820Z,24.61
2023-02-27T14:09:53.200Z,25.03
2023-02-27T14:12:45.769Z,25.45
2023-02-27T14:15:25.380Z,25.17
2023-02-27T14:18:11.482Z,26.09
2023-02-27T14:20:41.353Z,25.84
2023-02-27T14:23:17.531Z,24.84
2023-02-27T14:25:54.296Z,25.13
2023-02-27T14:28:32.783Z,24.80
2023-02-27T14:31:04.490Z,24.74
2023-02-27T14:33:46.540Z,25.66
2023-02-27T14:36:19.225Z,25.73
2023-02-27T14:38:47.618Z,26.11
2023-02-27T14:41:33.417Z,28.05
2023-02-27T14:44:00.981Z,29.18
2023-02-27T14:46:31.225Z,29.14
2023-02-27T14:49:01.020Z,29.01
2023-02-27T14:51:34.901Z,28.56
2023-02-27T14:54:14.306Z,29.06
2023-02-27T14:56:53.946Z,29.37
2023-02-27T14:59:21.190Z,29.50
2023-02-27T15:01:48.464Z,29.95
2023-02-27T15:04:20.760Z,29.96
2023-02-27T15:06:50.665Z,30.05
2023-02-27T15:09:45.026Z,30.49
2023-02-27T15:12:20.830Z,30.40
2023-02-27T15:14:52.438Z,30.70
2023-02-27T15:17:25.712Z,30.75
2023-02-27T15:19:58.828Z,30.97
2023-02-27T15:22:38.887Z,31.29
2023-02-27T15:25:08.456Z,31.60
2023-02-27T15:27:37.823Z,31.87
2023-02-27T15:30:05.766Z,32.29
2023-02-27T15:32:43.323Z,32.18
2023-02-27T15:35:19.280Z,32.77
2023-02-27T15:37:53.553Z,32.94
2023-02-27T15:40:24.664Z,33.32
2023-02-27T15:42:53.628Z,33.47
2023-02-27T15:45:25.024Z,33.17
2023-02-27T15:47:52.465Z,33.28
2023-02-27T15:50:26.639Z,33.09
2023-02-27T15:53:00.713Z,33.56
2023-02-27T15:55:55.950Z,33.50
2023-02-27T15:58:30.610Z,33.58
2023-02-27T16:01:01.982Z,33.90
2023-02-27T16:03:50.822Z,33.89
2023-02-27T16:06:27.985Z,34.01
2023-02-27T16:08:57.979Z,34.30
2023-02-27T16:11:31.069Z,34.34
2023-02-27T16:13:59.019Z,34.53
2023-02-27T16:16:36.327Z,34.53
2023-02-27T16:19:24.249Z,35.02
2023-02-27T16:22:12.340Z,34.98
2023-02-27T16:24:39.347Z,35.12
2023-02-27T16:27:07.141Z,34.93
2023-02-27T16:29:44.550Z,35.30
2023-02-27T16:32:29.812Z,35.24
2023-02-27T16:35:15.424Z,35.35
2023-02-27T16:37:43.786Z,35.42
2023-02-27T16:40:16.835Z,35.84
2023-02-27T16:42:44.826Z,35.71
2023-02-27T16:45:21.745Z,35.92
2023-02-27T16:47:50.803Z,35.99
2023-02-27T16:50:39.769Z,36.34
2023-02-27T16:53:08.120Z,36.42
2023-02-27T16:55:38.698Z,36.32
2023-02-27T16:58:06.717Z,36.51
2023-02-27T17:00:34.512Z,36.79
2023-02-27T17:03:01.697Z,37.02
2023-02-27T17:05:28.988Z,37.12
2023-02-27T17:07:55.948Z,36.82
2023-02-27T17:10:25.782Z,37.45
2023-02-27T17:12:53.480Z,37.64
2023-02-27T17:15:21.356Z,37.55
2023-02-27T17:17:48.586Z,37.57
2023-02-27T17:20:15.845Z,37.85
2023-02-27T17:22:44.995Z,38.40
2023-02-27T17:25:13.863Z,38.17
2023-02-27T17:27:43.784Z,37.61
2023-02-27T17:30:11.997Z,37.72
2023-02-27T17:32:39.237Z,37.92
2023-02-27T17:35:06.829Z,37.59
2023-02-27T17:37:34.027Z,37.60
2023-02-27T17:40:04.729Z,38.16
2023-02-27T17:42:32.908Z,38.13
2023-02-27T17:45:01.516Z,38.39
2023-02-27T17:47:28.777Z,38.21
2023-02-27T17:49:55.909Z,37.94
2023-02-27T17:52:23.388Z,37.99
2023-02-27T17:54:50.752Z,37.98
2023-02-27T17:57:17.837Z,38.27
2023-02-27T17:59:44.986Z,38.23
2023-02-27T18:02:15.591Z,38.12
2023-02-27T18:04:43.225Z,38.16
2023-02-27T18:07:10.477Z,37.85
2023-02-27T18:09:37.715Z,37.67
2023-02-27T18:12:05.267Z,37.98
2023-02-27T18:14:32.492Z,37.86
2023-02-27T18:16:59.983Z,37.63
2023-02-27T18:19:27.259Z,37.67
2023-02-27T18:21:54.429Z,38.39
2023-02-27T18:24:21.875Z,38.10
2023-02-27T18:26:49.574Z,38.03
2023-02-27T18:29:18.108Z,38.23
2023-02-27T18:31:50.411Z,38.47
2023-02-27T18:34:17.626Z,38.41
2023-02-27T18:36:44.785Z,38.09
2023-02-27T18:39:11.980Z,38.51
2023-02-27T18:41:39.628Z,38.19
2023-02-27T18:44:08.138Z,38.39
2023-02-27T18:46:35.735Z,38.46
2023-02-27T18:49:03.100Z,38.51
2023-02-27T18:51:30.311Z,38.48
2023-02-27T18:53:59.942Z,38.29
2023-02-27T18:56:30.804Z,38.70
2023-02-27T18:59:02.243Z,38.49
2023-02-27T19:01:33.149Z,38.76
2023-02-27T19:04:05.037Z,38.96
2023-02-27T19:06:34.662Z,38.56
2023-02-27T19:09:04.031Z,39.01
2023-02-27T19:11:34.979Z,39.04
2023-02-27T19:14:04.662Z,39.11
2023-02-27T19:16:32.717Z,39.24
2023-02-27T19:19:01.708Z,39.21
2023-02-27T19:21:29.563Z,38.56
2023-02-27T19:23:57.202Z,38.26
2023-02-27T19:26:25.221Z,38.12
2023-02-27T19:28:54.279Z,38.18
2023-02-27T19:31:23.893Z,38.31
2023-02-27T19:33:51.619Z,38.37
2023-02-27T19:36:23.800Z,38.23
2023-02-27T19:38:52.808Z,38.44
2023-02-27T19:41:20.939Z,38.84
2023-02-27T19:43:48.982Z,38.58
2023-02-27T19:46:20.188Z,37.87
2023-02-27T19:48:48.302Z,37.21
2023-02-27T19:51:16.750Z,37.16
2023-02-27T19:53:46.350Z,36.82
2023-02-27T19:56:15.850Z,36.55
2023-02-27T19:58:43.156Z,36.87
2023-02-27T20:01:11.048Z,37.00
2023-02-27T20:03:43.177Z,36.90
2023-02-27T20:06:24.063Z,37.31
2023-02-27T20:08:52.059Z,36.81
2023-02-27T20:11:20.988Z,36.72
2023-02-27T20:13:49.420Z,36.35
2023-02-27T20:16:20.091Z,36.65
2023-02-27T20:18:48.100Z,36.53
2023-02-27T20:21:18.301Z,36.78
2023-02-27T20:23:46.921Z,36.40
2023-02-27T20:26:14.181Z,36.58
2023-02-27T20:28:42.227Z,37.05
2023-02-27T20:31:10.931Z,36.65
2023-02-27T20:33:38.269Z,37.06
2023-02-27T20:36:06.459Z,37.01
2023-02-27T20:38:34.431Z,37.11
2023-02-27T20:41:01.593Z,37.30
2023-02-27T20:43:29.660Z,37.86
2023-02-27T20:45:57.184Z,37.24
2023-02-27T20:48:24.540Z,37.55
2023-02-27T20:50:51.564Z,37.60
2023-02-27T20:53:18.784Z,38.04
2023-02-27T20:55:49.752Z,38.05
2023-02-27T20:58:17.029Z,38.26
2023-02-27T21:00:44.299Z,38.39
2023-02-27T21:03:11.427Z,38.19
2023-02-27T21:05:38.664Z,38.43
2023-02-27T21:08:05.795Z,38.67
2023-02-27T21:10:33.424Z,38.88
2023-02-27T21:13:00.626Z,38.53
2023-02-27T21:15:27.996Z,38.65
2023-02-27T21:17:55.192Z,38.95
2023-02-27T21:20:22.544Z,39.04
2023-02-27T21:22:49.862Z,38.92
2023-02-27T21:25:17.021Z,39.03
2023-02-27T21:27:44.229Z,39.18
2023-02-27T21:30:12.424Z,38.97
2023-02-27T21:32:39.581Z,38.94
2023-02-27T21:35:07.383Z,38.46
2023-02-27T21:37:34.864Z,38.25
2023-02-27T21:40:04.520Z,38.64
2023-02-27T21:42:32.047Z,38.50
2023-02-27T21:44:59.305Z,38.14
2023-02-27T21:47:26.620Z,38.25
2023-02-27T21:49:53.909Z,38.02
2023-02-27T21:52:21.141Z,38.01
2023-02-27T21:54:48.500Z,38.03
2023-02-27T21:57:15.700Z,38.05
2023-02-27T21:59:43.036Z,37.96
2023-02-27T22:02:13.978Z,37.88
2023-02-27T22:04:41.219Z,38.27
2023-02-27T22:07:10.529Z,38.08
2023-02-27T22:09:38.780Z,38.23
2023-02-27T22:12:06.076Z,38.14
2023-02-27T22:14:33.238Z,37.71
2023-02-27T22:17:00.545Z,37.76
2023-02-27T22:19:27.703Z,38.10
2023-02-27T22:21:54.822Z,37.83
2023-02-27T22:24:22.060Z,38.04
2023-02-27T22:26:50.552Z,38.16
2023-02-27T22:29:18.308Z,38.26
2023-02-27T22:31:46.178Z,38.36
2023-02-27T22:34:18.781Z,39.41
2023-02-27T22:36:48.950Z,40.02
2023-02-27T22:39:16.153Z,40.50
2023-02-27T22:41:43.540Z,40.78
2023-02-27T22:44:13.984Z,40.77
2023-02-27T22:46:47.819Z,41.03
2023-02-27T22:49:19.711Z,40.75
2023-02-27T22:51:50.984Z,40.52
2023-02-27T22:54:20.757Z,40.64
2023-02-27T22:56:51.022Z,40.51
2023-02-27T22:59:18.259Z,40.32
2023-02-27T23:01:45.721Z,39.84
2023-02-27T23:04:13.175Z,39.80
2023-02-27T23:06:41.218Z,39.52
2023-02-27T23:09:11.064Z,39.72
2023-02-27T23:11:39.379Z,39.50
2023-02-27T23:14:06.857Z,39.18
2023-02-27T23:16:34.176Z,40.28
2023-02-27T23:19:02.332Z,41.47
2023-02-27T23:21:36.862Z,41.16
2023-02-27T23:24:14.749Z,40.63
2023-02-27T23:26:47.820Z,40.52
2023-02-27T23:29:15.317Z,40.40
2023-02-27T23:31:42.676Z,40.38
2023-02-27T23:34:10.497Z,40.62
2023-02-27T23:36:39.322Z,40.98
2023-02-27T23:39:07.504Z,41.45
2023-02-27T23:41:34.980Z,41.62
2023-02-27T23:44:20.823Z,40.74
2023-02-27T23:46:48.140Z,41.03
2023-02-27T23:49:15.261Z,41.01
2023-02-27T23:51:42.777Z,41.52
2023-02-27T23:54:10.788Z,41.94
2023-02-27T23:56:38.102Z,42.69
2023-02-27T23:59:06.807Z,43.19
